sensor_id;sensor_type;location;lat;lon;timestamp;P1;durP1;ratioP1;P2;durP2;ratioP2
47025;SDS011;32783;51.756;-2.556;2023-03-24T00:01:01;2.00;;;1.58;;
47025;SDS011;32783;51.756;-2.556;2023-03-24T00:03:28;1.80;;;1.30;;
47025;SDS011;32783;51.756;-2.556;2023-03-24T00:05:57;3.35;;;1.25;;
47025;SDS011;32783;51.756;-2.556;2023-03-24T00:08:26;1.73;;;1.25;;
47025;SDS011;32783;51.756;-2.556;2023-03-24T00:10:56;3.60;;;1.65;;
47025;SDS011;32783;51.756;-2.556;2023-03-24T00:13:24;2.85;;;1.17;;
47025;SDS011;32783;51.756;-2.556;2023-03-24T00:15:49;2.58;;;1.73;;
47025;SDS011;32783;51.756;-2.556;2023-03-24T00:18:15;3.95;;;1.55;;
47025;SDS011;32783;51.756;-2.556;2023-03-24T00:20:40;2.60;;;1.30;;
47025;SDS011;32783;51.756;-2.556;2023-03-24T00:23:06;2.75;;;1.20;;
47025;SDS011;32783;51.756;-2.556;2023-03-24T00:25:31;1.90;;;1.10;;
47025;SDS011;32783;51.756;-2.556;2023-03-24T00:28:00;1.83;;;1.00;;
47025;SDS011;32783;51.756;-2.556;2023-03-24T00:30:27;2.30;;;1.33;;
47025;SDS011;32783;51.756;-2.556;2023-03-24T00:32:53;4.05;;;1.63;;
47025;SDS011;32783;51.756;-2.556;2023-03-24T00:35:18;2.85;;;1.20;;
47025;SDS011;32783;51.756;-2.556;2023-03-24T00:37:44;3.90;;;1.60;;
47025;SDS011;32783;51.756;-2.556;2023-03-24T00:40:14;1.70;;;0.90;;
47025;SDS011;32783;51.756;-2.556;2023-03-24T00:42:42;3.35;;;1.95;;
47025;SDS011;32783;51.756;-2.556;2023-03-24T00:45:14;2.50;;;1.23;;
47025;SDS011;32783;51.756;-2.556;2023-03-24T00:47:42;2.38;;;0.90;;
47025;SDS011;32783;51.756;-2.556;2023-03-24T00:50:10;2.95;;;1.42;;
47025;SDS011;32783;51.756;-2.556;2023-03-24T00:52:37;2.20;;;1.05;;
47025;SDS011;32783;51.756;-2.556;2023-03-24T00:55:08;2.40;;;1.17;;
47025;SDS011;32783;51.756;-2.556;2023-03-24T00:57:34;1.38;;;1.05;;
47025;SDS011;32783;51.756;-2.556;2023-03-24T01:00:01;2.00;;;1.20;;
47025;SDS011;32783;51.756;-2.556;2023-03-24T01:02:35;1.95;;;1.15;;
47025;SDS011;32783;51.756;-2.556;2023-03-24T01:05:00;2.88;;;1.23;;
47025;SDS011;32783;51.756;-2.556;2023-03-24T01:07:26;2.25;;;1.40;;
47025;SDS011;32783;51.756;-2.556;2023-03-24T01:09:54;2.60;;;1.55;;
47025;SDS011;32783;51.756;-2.556;2023-03-24T01:12:27;1.80;;;1.02;;
47025;SDS011;32783;51.756;-2.556;2023-03-24T01:14:53;3.00;;;1.50;;
47025;SDS011;32783;51.756;-2.556;2023-03-24T01:17:19;1.70;;;1.08;;
47025;SDS011;32783;51.756;-2.556;2023-03-24T01:19:46;2.85;;;1.45;;
47025;SDS011;32783;51.756;-2.556;2023-03-24T01:22:12;2.90;;;1.13;;
47025;SDS011;32783;51.756;-2.556;2023-03-24T01:24:38;2.53;;;1.25;;
47025;SDS011;32783;51.756;-2.556;2023-03-24T01:27:04;3.88;;;1.80;;
47025;SDS011;32783;51.756;-2.556;2023-03-24T01:29:30;1.80;;;0.93;;
47025;SDS011;32783;51.756;-2.556;2023-03-24T01:31:55;2.67;;;1.25;;
47025;SDS011;32783;51.756;-2.556;2023-03-24T01:34:21;2.80;;;1.25;;
47025;SDS011;32783;51.756;-2.556;2023-03-24T01:36:46;4.43;;;1.95;;
47025;SDS011;32783;51.756;-2.556;2023-03-24T01:39:12;3.00;;;1.25;;
47025;SDS011;32783;51.756;-2.556;2023-03-24T01:41:38;2.88;;;1.10;;
47025;SDS011;32783;51.756;-2.556;2023-03-24T01:46:51;2.63;;;1.38;;
47025;SDS011;32783;51.756;-2.556;2023-03-24T01:49:17;2.33;;;1.33;;
47025;SDS011;32783;51.756;-2.556;2023-03-24T01:51:44;3.47;;;1.50;;
47025;SDS011;32783;51.756;-2.556;2023-03-24T01:56:56;2.60;;;1.30;;
47025;SDS011;32783;51.756;-2.556;2023-03-24T01:59:26;1.92;;;1.13;;
47025;SDS011;32783;51.756;-2.556;2023-03-24T02:01:53;3.45;;;2.17;;
47025;SDS011;32783;51.756;-2.556;2023-03-24T02:04:28;2.60;;;1.13;;
47025;SDS011;32783;51.756;-2.556;2023-03-24T02:09:52;2.25;;;1.35;;
47025;SDS011;32783;51.756;-2.556;2023-03-24T02:12:18;2.30;;;1.38;;
47025;SDS011;32783;51.756;-2.556;2023-03-24T02:14:43;1.52;;;0.90;;
47025;SDS011;32783;51.756;-2.556;2023-03-24T02:28:31;1.80;;;1.08;;
47025;SDS011;32783;51.756;-2.556;2023-03-24T02:42:57;2.45;;;1.38;;
47025;SDS011;32783;51.756;-2.556;2023-03-24T02:45:52;2.13;;;1.25;;
47025;SDS011;32783;51.756;-2.556;2023-03-24T02:51:15;3.22;;;1.33;;
47025;SDS011;32783;51.756;-2.556;2023-03-24T02:59:18;2.72;;;1.27;;
47025;SDS011;32783;51.756;-2.556;2023-03-24T03:01:51;2.33;;;1.35;;
47025;SDS011;32783;51.756;-2.556;2023-03-24T03:04:20;2.75;;;1.27;;
47025;SDS011;32783;51.756;-2.556;2023-03-24T03:06:50;3.72;;;1.45;;
47025;SDS011;32783;51.756;-2.556;2023-03-24T03:09:18;2.63;;;1.38;;
47025;SDS011;32783;51.756;-2.556;2023-03-24T03:11:49;1.83;;;1.20;;
47025;SDS011;32783;51.756;-2.556;2023-03-24T03:14:29;2.63;;;1.30;;
47025;SDS011;32783;51.756;-2.556;2023-03-24T03:16:59;1.70;;;0.90;;
47025;SDS011;32783;51.756;-2.556;2023-03-24T03:19:48;1.75;;;1.10;;
47025;SDS011;32783;51.756;-2.556;2023-03-24T03:22:22;1.95;;;1.15;;
47025;SDS011;32783;51.756;-2.556;2023-03-24T03:24:53;2.35;;;1.00;;
47025;SDS011;32783;51.756;-2.556;2023-03-24T03:27:24;2.38;;;1.42;;
47025;SDS011;32783;51.756;-2.556;2023-03-24T03:29:56;2.55;;;1.10;;
47025;SDS011;32783;51.756;-2.556;2023-03-24T03:32:48;2.05;;;1.13;;
47025;SDS011;32783;51.756;-2.556;2023-03-24T03:36:01;2.22;;;1.33;;
47025;SDS011;32783;51.756;-2.556;2023-03-24T03:40:51;2.75;;;1.13;;
47025;SDS011;32783;51.756;-2.556;2023-03-24T03:43:19;2.38;;;1.25;;
47025;SDS011;32783;51.756;-2.556;2023-03-24T03:45:45;2.55;;;1.48;;
47025;SDS011;32783;51.756;-2.556;2023-03-24T03:48:11;2.50;;;1.02;;
47025;SDS011;32783;51.756;-2.556;2023-03-24T03:50:36;1.83;;;0.80;;
47025;SDS011;32783;51.756;-2.556;2023-03-24T03:53:03;2.08;;;1.20;;
47025;SDS011;32783;51.756;-2.556;2023-03-24T03:55:29;1.65;;;1.20;;
47025;SDS011;32783;51.756;-2.556;2023-03-24T03:57:56;1.75;;;0.82;;
47025;SDS011;32783;51.756;-2.556;2023-03-24T04:00:21;2.95;;;1.42;;
47025;SDS011;32783;51.756;-2.556;2023-03-24T04:05:55;2.20;;;1.02;;
47025;SDS011;32783;51.756;-2.556;2023-03-24T04:14:19;2.35;;;1.13;;
47025;SDS011;32783;51.756;-2.556;2023-03-24T04:17:11;3.20;;;1.27;;
47025;SDS011;32783;51.756;-2.556;2023-03-24T04:19:47;1.48;;;0.80;;
47025;SDS011;32783;51.756;-2.556;2023-03-24T04:27:50;2.35;;;0.90;;
47025;SDS011;32783;51.756;-2.556;2023-03-24T04:33:24;2.45;;;1.00;;
47025;SDS011;32783;51.756;-2.556;2023-03-24T04:35:59;1.88;;;0.98;;
47025;SDS011;32783;51.756;-2.556;2023-03-24T04:38:30;2.35;;;1.15;;
47025;SDS011;32783;51.756;-2.556;2023-03-24T04:40:59;2.60;;;1.20;;
47025;SDS011;32783;51.756;-2.556;2023-03-24T04:43:27;2.10;;;0.95;;
47025;SDS011;32783;51.756;-2.556;2023-03-24T04:45:53;2.75;;;0.93;;
47025;SDS011;32783;51.756;-2.556;2023-03-24T04:48:21;3.08;;;1.35;;
47025;SDS011;32783;51.756;-2.556;2023-03-24T04:50:55;1.95;;;0.95;;
47025;SDS011;32783;51.756;-2.556;2023-03-24T04:53:22;2.42;;;1.40;;
47025;SDS011;32783;51.756;-2.556;2023-03-24T04:58:16;1.80;;;1.15;;
47025;SDS011;32783;51.756;-2.556;2023-03-24T05:00:43;2.13;;;0.80;;
47025;SDS011;32783;51.756;-2.556;2023-03-24T05:03:09;2.03;;;1.23;;
47025;SDS011;32783;51.756;-2.556;2023-03-24T05:08:06;2.17;;;1.23;;
47025;SDS011;32783;51.756;-2.556;2023-03-24T05:10:32;1.65;;;0.80;;
47025;SDS011;32783;51.756;-2.556;2023-03-24T05:12:59;1.65;;;1.00;;
47025;SDS011;32783;51.756;-2.556;2023-03-24T05:15:25;1.83;;;1.10;;
47025;SDS011;32783;51.756;-2.556;2023-03-24T05:17:50;2.20;;;0.98;;
47025;SDS011;32783;51.756;-2.556;2023-03-24T05:20:16;2.08;;;1.00;;
47025;SDS011;32783;51.756;-2.556;2023-03-24T05:22:42;1.55;;;0.85;;
47025;SDS011;32783;51.756;-2.556;2023-03-24T05:25:08;2.90;;;1.45;;
47025;SDS011;32783;51.756;-2.556;2023-03-24T05:27:33;1.40;;;0.90;;
47025;SDS011;32783;51.756;-2.556;2023-03-24T05:29:59;1.65;;;0.75;;
47025;SDS011;32783;51.756;-2.556;2023-03-24T05:32:24;1.70;;;1.08;;
47025;SDS011;32783;51.756;-2.556;2023-03-24T05:34:50;1.80;;;0.90;;
47025;SDS011;32783;51.756;-2.556;2023-03-24T05:37:15;2.20;;;0.70;;
47025;SDS011;32783;51.756;-2.556;2023-03-24T05:39:42;2.88;;;1.35;;
47025;SDS011;32783;51.756;-2.556;2023-03-24T05:42:08;2.28;;;0.98;;
47025;SDS011;32783;51.756;-2.556;2023-03-24T05:44:34;1.80;;;0.90;;
47025;SDS011;32783;51.756;-2.556;2023-03-24T05:46:59;2.08;;;1.00;;
47025;SDS011;32783;51.756;-2.556;2023-03-24T05:49:25;2.22;;;0.80;;
47025;SDS011;32783;51.756;-2.556;2023-03-24T05:51:50;2.38;;;1.27;;
47025;SDS011;32783;51.756;-2.556;2023-03-24T05:54:16;1.92;;;1.02;;
47025;SDS011;32783;51.756;-2.556;2023-03-24T05:56:41;1.38;;;0.70;;
47025;SDS011;32783;51.756;-2.556;2023-03-24T05:59:07;2.58;;;1.10;;
47025;SDS011;32783;51.756;-2.556;2023-03-24T06:01:32;1.80;;;0.80;;
47025;SDS011;32783;51.756;-2.556;2023-03-24T06:03:58;1.75;;;0.73;;
47025;SDS011;32783;51.756;-2.556;2023-03-24T06:06:23;1.70;;;0.85;;
47025;SDS011;32783;51.756;-2.556;2023-03-24T06:08:50;3.20;;;1.25;;
47025;SDS011;32783;51.756;-2.556;2023-03-24T06:11:19;1.67;;;0.98;;
47025;SDS011;32783;51.756;-2.556;2023-03-24T06:13:45;2.03;;;1.23;;
47025;SDS011;32783;51.756;-2.556;2023-03-24T06:16:10;1.80;;;0.90;;
47025;SDS011;32783;51.756;-2.556;2023-03-24T06:18:36;2.45;;;0.95;;
47025;SDS011;32783;51.756;-2.556;2023-03-24T06:21:04;2.22;;;1.45;;
47025;SDS011;32783;51.756;-2.556;2023-03-24T06:23:30;2.97;;;1.02;;
47025;SDS011;32783;51.756;-2.556;2023-03-24T06:25:58;1.48;;;0.82;;
47025;SDS011;32783;51.756;-2.556;2023-03-24T06:28:25;2.28;;;1.15;;
47025;SDS011;32783;51.756;-2.556;2023-03-24T06:30:54;2.40;;;0.98;;
47025;SDS011;32783;51.756;-2.556;2023-03-24T06:33:22;1.50;;;0.70;;
47025;SDS011;32783;51.756;-2.556;2023-03-24T06:35:50;3.65;;;1.55;;
47025;SDS011;32783;51.756;-2.556;2023-03-24T06:38:16;1.98;;;0.93;;
47025;SDS011;32783;51.756;-2.556;2023-03-24T06:40:41;1.92;;;0.93;;
47025;SDS011;32783;51.756;-2.556;2023-03-24T06:43:07;2.88;;;1.00;;
47025;SDS011;32783;51.756;-2.556;2023-03-24T06:45:32;2.67;;;1.13;;
47025;SDS011;32783;51.756;-2.556;2023-03-24T06:47:58;1.90;;;1.17;;
47025;SDS011;32783;51.756;-2.556;2023-03-24T06:50:24;2.78;;;0.93;;
47025;SDS011;32783;51.756;-2.556;2023-03-24T06:52:51;2.13;;;0.90;;
47025;SDS011;32783;51.756;-2.556;2023-03-24T06:55:17;2.00;;;1.20;;
47025;SDS011;32783;51.756;-2.556;2023-03-24T06:57:43;2.38;;;1.17;;
47025;SDS011;32783;51.756;-2.556;2023-03-24T07:00:09;1.67;;;0.95;;
47025;SDS011;32783;51.756;-2.556;2023-03-24T07:02:35;1.73;;;1.00;;
47025;SDS011;32783;51.756;-2.556;2023-03-24T07:05:02;4.65;;;2.05;;
47025;SDS011;32783;51.756;-2.556;2023-03-24T07:07:33;2.13;;;0.93;;
47025;SDS011;32783;51.756;-2.556;2023-03-24T07:10:00;2.55;;;1.10;;
47025;SDS011;32783;51.756;-2.556;2023-03-24T07:12:26;3.10;;;0.98;;
47025;SDS011;32783;51.756;-2.556;2023-03-24T07:14:51;2.25;;;1.17;;
47025;SDS011;32783;51.756;-2.556;2023-03-24T07:17:17;2.08;;;1.10;;
47025;SDS011;32783;51.756;-2.556;2023-03-24T07:19:42;2.25;;;0.90;;
47025;SDS011;32783;51.756;-2.556;2023-03-24T07:22:10;2.53;;;1.20;;
47025;SDS011;32783;51.756;-2.556;2023-03-24T07:24:36;2.10;;;1.02;;
47025;SDS011;32783;51.756;-2.556;2023-03-24T07:27:02;2.67;;;1.10;;
47025;SDS011;32783;51.756;-2.556;2023-03-24T07:29:27;1.80;;;1.10;;
47025;SDS011;32783;51.756;-2.556;2023-03-24T07:31:53;2.20;;;1.00;;
47025;SDS011;32783;51.756;-2.556;2023-03-24T07:34:22;2.88;;;1.00;;
47025;SDS011;32783;51.756;-2.556;2023-03-24T07:36:57;2.55;;;1.08;;
47025;SDS011;32783;51.756;-2.556;2023-03-24T07:39:22;3.28;;;0.90;;
47025;SDS011;32783;51.756;-2.556;2023-03-24T07:41:48;1.90;;;0.85;;
47025;SDS011;32783;51.756;-2.556;2023-03-24T07:44:13;2.28;;;1.00;;
47025;SDS011;32783;51.756;-2.556;2023-03-24T07:46:39;3.05;;;1.20;;
47025;SDS011;32783;51.756;-2.556;2023-03-24T07:49:04;1.90;;;0.93;;
47025;SDS011;32783;51.756;-2.556;2023-03-24T07:51:30;1.55;;;0.80;;
47025;SDS011;32783;51.756;-2.556;2023-03-24T07:53:56;1.95;;;0.85;;
47025;SDS011;32783;51.756;-2.556;2023-03-24T07:56:22;1.52;;;0.88;;
47025;SDS011;32783;51.756;-2.556;2023-03-24T07:58:48;3.10;;;1.02;;
47025;SDS011;32783;51.756;-2.556;2023-03-24T08:01:13;2.70;;;1.23;;
47025;SDS011;32783;51.756;-2.556;2023-03-24T08:03:39;5.50;;;1.35;;
47025;SDS011;32783;51.756;-2.556;2023-03-24T08:06:08;2.13;;;0.93;;
47025;SDS011;32783;51.756;-2.556;2023-03-24T08:08:34;4.50;;;1.20;;
47025;SDS011;32783;51.756;-2.556;2023-03-24T08:11:00;1.85;;;1.08;;
47025;SDS011;32783;51.756;-2.556;2023-03-24T08:13:27;2.78;;;1.10;;
47025;SDS011;32783;51.756;-2.556;2023-03-24T08:15:52;2.00;;;0.98;;
47025;SDS011;32783;51.756;-2.556;2023-03-24T08:18:21;5.57;;;1.65;;
47025;SDS011;32783;51.756;-2.556;2023-03-24T08:20:48;3.65;;;1.83;;
47025;SDS011;32783;51.756;-2.556;2023-03-24T08:23:14;2.95;;;1.10;;
47025;SDS011;32783;51.756;-2.556;2023-03-24T08:25:42;2.78;;;1.42;;
47025;SDS011;32783;51.756;-2.556;2023-03-24T08:28:07;4.25;;;1.05;;
47025;SDS011;32783;51.756;-2.556;2023-03-24T08:30:33;2.30;;;1.20;;
47025;SDS011;32783;51.756;-2.556;2023-03-24T08:32:59;3.33;;;1.20;;
47025;SDS011;32783;51.756;-2.556;2023-03-24T08:35:27;3.30;;;1.33;;
47025;SDS011;32783;51.756;-2.556;2023-03-24T08:37:54;2.45;;;1.30;;
47025;SDS011;32783;51.756;-2.556;2023-03-24T08:40:20;5.55;;;1.58;;
47025;SDS011;32783;51.756;-2.556;2023-03-24T08:42:49;2.63;;;1.53;;
47025;SDS011;32783;51.756;-2.556;2023-03-24T08:45:17;3.72;;;1.40;;
47025;SDS011;32783;51.756;-2.556;2023-03-24T08:47:45;3.90;;;1.63;;
47025;SDS011;32783;51.756;-2.556;2023-03-24T08:50:11;2.60;;;1.05;;
47025;SDS011;32783;51.756;-2.556;2023-03-24T08:52:37;2.50;;;1.48;;
47025;SDS011;32783;51.756;-2.556;2023-03-24T08:55:03;3.80;;;1.38;;
47025;SDS011;32783;51.756;-2.556;2023-03-24T08:57:28;3.22;;;1.10;;
47025;SDS011;32783;51.756;-2.556;2023-03-24T08:59:55;2.75;;;1.20;;
47025;SDS011;32783;51.756;-2.556;2023-03-24T09:02:20;2.58;;;1.00;;
47025;SDS011;32783;51.756;-2.556;2023-03-24T09:04:45;2.65;;;1.00;;
47025;SDS011;32783;51.756;-2.556;2023-03-24T09:07:11;3.95;;;1.40;;
47025;SDS011;32783;51.756;-2.556;2023-03-24T09:09:37;3.50;;;1.40;;
47025;SDS011;32783;51.756;-2.556;2023-03-24T09:12:03;4.53;;;1.65;;
47025;SDS011;32783;51.756;-2.556;2023-03-24T09:14:29;5.32;;;1.77;;
47025;SDS011;32783;51.756;-2.556;2023-03-24T09:16:55;6.13;;;1.50;;
47025;SDS011;32783;51.756;-2.556;2023-03-24T09:19:20;10.10;;;2.47;;
47025;SDS011;32783;51.756;-2.556;2023-03-24T09:21:46;5.80;;;1.77;;
47025;SDS011;32783;51.756;-2.556;2023-03-24T09:24:12;9.85;;;1.83;;
47025;SDS011;32783;51.756;-2.556;2023-03-24T09:26:38;5.22;;;1.63;;
47025;SDS011;32783;51.756;-2.556;2023-03-24T09:29:04;5.63;;;1.73;;
47025;SDS011;32783;51.756;-2.556;2023-03-24T09:31:30;5.35;;;1.50;;
47025;SDS011;32783;51.756;-2.556;2023-03-24T09:33:55;5.47;;;1.52;;
47025;SDS011;32783;51.756;-2.556;2023-03-24T09:36:21;4.80;;;1.50;;
47025;SDS011;32783;51.756;-2.556;2023-03-24T09:38:47;6.03;;;1.70;;
47025;SDS011;32783;51.756;-2.556;2023-03-24T09:41:16;5.72;;;1.80;;
47025;SDS011;32783;51.756;-2.556;2023-03-24T09:43:44;6.03;;;1.95;;
47025;SDS011;32783;51.756;-2.556;2023-03-24T09:46:23;3.55;;;1.50;;
47025;SDS011;32783;51.756;-2.556;2023-03-24T09:48:56;3.20;;;1.23;;
47025;SDS011;32783;51.756;-2.556;2023-03-24T09:51:29;3.67;;;2.45;;
47025;SDS011;32783;51.756;-2.556;2023-03-24T09:56:28;12.67;;;9.93;;
47025;SDS011;32783;51.756;-2.556;2023-03-24T09:59:02;11.23;;;8.82;;
47025;SDS011;32783;51.756;-2.556;2023-03-24T10:01:40;8.30;;;7.38;;
47025;SDS011;32783;51.756;-2.556;2023-03-24T10:04:10;8.30;;;7.00;;
47025;SDS011;32783;51.756;-2.556;2023-03-24T10:06:39;8.82;;;7.03;;
47025;SDS011;32783;51.756;-2.556;2023-03-24T10:09:24;10.60;;;6.32;;
47025;SDS011;32783;51.756;-2.556;2023-03-24T10:14:40;7.03;;;5.57;;
47025;SDS011;32783;51.756;-2.556;2023-03-24T10:27:56;5.88;;;4.82;;
47025;SDS011;32783;51.756;-2.556;2023-03-24T10:30:28;7.30;;;4.75;;
47025;SDS011;32783;51.756;-2.556;2023-03-24T10:32:56;7.80;;;4.30;;
47025;SDS011;32783;51.756;-2.556;2023-03-24T10:37:47;7.80;;;4.32;;
47025;SDS011;32783;51.756;-2.556;2023-03-24T10:40:14;5.47;;;4.22;;
47025;SDS011;32783;51.756;-2.556;2023-03-24T10:42:42;4.50;;;3.75;;
47025;SDS011;32783;51.756;-2.556;2023-03-24T10:45:13;5.60;;;3.90;;
47025;SDS011;32783;51.756;-2.556;2023-03-24T10:47:53;6.25;;;3.55;;
47025;SDS011;32783;51.756;-2.556;2023-03-24T10:50:23;5.80;;;3.75;;
47025;SDS011;32783;51.756;-2.556;2023-03-24T10:52:50;4.75;;;3.13;;
47025;SDS011;32783;51.756;-2.556;2023-03-24T10:55:18;4.68;;;3.30;;
47025;SDS011;32783;51.756;-2.556;2023-03-24T10:57:47;5.22;;;3.53;;
47025;SDS011;32783;51.756;-2.556;2023-03-24T11:00:25;5.15;;;2.92;;
47025;SDS011;32783;51.756;-2.556;2023-03-24T11:03:03;4.50;;;3.28;;
47025;SDS011;32783;51.756;-2.556;2023-03-24T11:05:34;5.63;;;2.90;;
47025;SDS011;32783;51.756;-2.556;2023-03-24T11:11:11;4.78;;;3.00;;
47025;SDS011;32783;51.756;-2.556;2023-03-24T11:13:59;5.88;;;2.97;;
47025;SDS011;32783;51.756;-2.556;2023-03-24T11:16:36;5.55;;;3.15;;
47025;SDS011;32783;51.756;-2.556;2023-03-24T11:19:08;4.20;;;3.08;;
47025;SDS011;32783;51.756;-2.556;2023-03-24T11:21:42;5.60;;;2.28;;
47025;SDS011;32783;51.756;-2.556;2023-03-24T11:24:09;7.10;;;2.92;;
47025;SDS011;32783;51.756;-2.556;2023-03-24T11:26:39;4.45;;;2.25;;
47025;SDS011;32783;51.756;-2.556;2023-03-24T11:29:19;6.57;;;2.13;;
47025;SDS011;32783;51.756;-2.556;2023-03-24T11:31:58;6.40;;;2.00;;
47025;SDS011;32783;51.756;-2.556;2023-03-24T11:34:28;6.18;;;2.38;;
47025;SDS011;32783;51.756;-2.556;2023-03-24T11:37:03;5.38;;;2.28;;
47025;SDS011;32783;51.756;-2.556;2023-03-24T11:39:30;6.70;;;2.50;;
47025;SDS011;32783;51.756;-2.556;2023-03-24T11:44:25;3.42;;;1.67;;
47025;SDS011;32783;51.756;-2.556;2023-03-24T11:46:57;3.22;;;2.03;;
47025;SDS011;32783;51.756;-2.556;2023-03-24T11:49:29;3.13;;;1.75;;
47025;SDS011;32783;51.756;-2.556;2023-03-24T11:52:00;3.83;;;2.15;;
47025;SDS011;32783;51.756;-2.556;2023-03-24T11:54:27;3.28;;;1.65;;
47025;SDS011;32783;51.756;-2.556;2023-03-24T11:56:56;4.55;;;1.88;;
47025;SDS011;32783;51.756;-2.556;2023-03-24T11:59:30;3.42;;;1.73;;
47025;SDS011;32783;51.756;-2.556;2023-03-24T12:04:55;3.58;;;1.65;;
47025;SDS011;32783;51.756;-2.556;2023-03-24T12:18:23;3.53;;;1.70;;
47025;SDS011;32783;51.756;-2.556;2023-03-24T12:21:06;2.70;;;1.50;;
47025;SDS011;32783;51.756;-2.556;2023-03-24T12:26:29;4.32;;;1.52;;
47025;SDS011;32783;51.756;-2.556;2023-03-24T12:37:04;2.35;;;1.17;;
47025;SDS011;32783;51.756;-2.556;2023-03-24T12:39:34;2.92;;;1.65;;
47025;SDS011;32783;51.756;-2.556;2023-03-24T12:42:17;4.57;;;1.42;;
47025;SDS011;32783;51.756;-2.556;2023-03-24T12:52:49;4.82;;;1.45;;
47025;SDS011;32783;51.756;-2.556;2023-03-24T12:55:22;4.13;;;1.70;;
47025;SDS011;32783;51.756;-2.556;2023-03-24T12:57:53;4.25;;;1.27;;
47025;SDS011;32783;51.756;-2.556;2023-03-24T13:00:30;3.22;;;1.50;;
47025;SDS011;32783;51.756;-2.556;2023-03-24T13:02:59;1.75;;;1.30;;
47025;SDS011;32783;51.756;-2.556;2023-03-24T13:05:29;5.88;;;2.75;;
47025;SDS011;32783;51.756;-2.556;2023-03-24T13:07:58;3.63;;;1.30;;
47025;SDS011;32783;51.756;-2.556;2023-03-24T13:10:28;2.78;;;1.30;;
47025;SDS011;32783;51.756;-2.556;2023-03-24T13:15:48;2.28;;;1.10;;
47025;SDS011;32783;51.756;-2.556;2023-03-24T13:18:23;2.15;;;1.20;;
47025;SDS011;32783;51.756;-2.556;2023-03-24T13:21:04;3.08;;;1.25;;
47025;SDS011;32783;51.756;-2.556;2023-03-24T13:24:06;3.55;;;1.20;;
47025;SDS011;32783;51.756;-2.556;2023-03-24T13:34:54;4.03;;;2.03;;
47025;SDS011;32783;51.756;-2.556;2023-03-24T13:38:11;3.33;;;1.42;;
47025;SDS011;32783;51.756;-2.556;2023-03-24T13:40:25;9.75;;;3.10;;
47025;SDS011;32783;51.756;-2.556;2023-03-24T13:42:53;15.27;;;5.90;;
47025;SDS011;32783;51.756;-2.556;2023-03-24T13:45:24;15.18;;;7.43;;
47025;SDS011;32783;51.756;-2.556;2023-03-24T13:48:19;14.68;;;7.22;;
47025;SDS011;32783;51.756;-2.556;2023-03-24T14:01:33;8.82;;;3.85;;
47025;SDS011;32783;51.756;-2.556;2023-03-24T14:06:44;4.97;;;2.17;;
47025;SDS011;32783;51.756;-2.556;2023-03-24T14:09:15;8.65;;;3.05;;
47025;SDS011;32783;51.756;-2.556;2023-03-24T14:12:27;4.25;;;2.30;;
47025;SDS011;32783;51.756;-2.556;2023-03-24T14:15:22;4.75;;;2.00;;
47025;SDS011;32783;51.756;-2.556;2023-03-24T14:17:29;4.85;;;2.45;;
47025;SDS011;32783;51.756;-2.556;2023-03-24T14:25:00;4.60;;;2.38;;
47025;SDS011;32783;51.756;-2.556;2023-03-24T14:27:32;4.45;;;1.90;;
47025;SDS011;32783;51.756;-2.556;2023-03-24T14:30:03;4.40;;;2.40;;
47025;SDS011;32783;51.756;-2.556;2023-03-24T14:32:58;4.35;;;2.47;;
47025;SDS011;32783;51.756;-2.556;2023-03-24T14:40:45;6.90;;;2.17;;
47025;SDS011;32783;51.756;-2.556;2023-03-24T14:43:28;5.53;;;2.00;;
47025;SDS011;32783;51.756;-2.556;2023-03-24T14:51:37;3.88;;;2.05;;
47025;SDS011;32783;51.756;-2.556;2023-03-24T14:54:52;3.17;;;1.65;;
47025;SDS011;32783;51.756;-2.556;2023-03-24T14:57:03;4.40;;;2.10;;
47025;SDS011;32783;51.756;-2.556;2023-03-24T15:07:38;4.13;;;1.60;;
47025;SDS011;32783;51.756;-2.556;2023-03-24T15:10:17;3.53;;;2.20;;
47025;SDS011;32783;51.756;-2.556;2023-03-24T15:12:44;5.00;;;1.90;;
47025;SDS011;32783;51.756;-2.556;2023-03-24T15:15:18;2.92;;;1.60;;
47025;SDS011;32783;51.756;-2.556;2023-03-24T15:17:46;4.80;;;2.63;;
47025;SDS011;32783;51.756;-2.556;2023-03-24T15:20:25;3.17;;;1.90;;
47025;SDS011;32783;51.756;-2.556;2023-03-24T15:22:52;2.60;;;1.65;;
47025;SDS011;32783;51.756;-2.556;2023-03-24T15:25:25;4.78;;;1.92;;
47025;SDS011;32783;51.756;-2.556;2023-03-24T15:27:52;4.15;;;1.90;;
47025;SDS011;32783;51.756;-2.556;2023-03-24T15:30:19;3.15;;;1.60;;
47025;SDS011;32783;51.756;-2.556;2023-03-24T15:32:45;3.25;;;1.80;;
47025;SDS011;32783;51.756;-2.556;2023-03-24T15:35:16;5.32;;;1.52;;
47025;SDS011;32783;51.756;-2.556;2023-03-24T15:37:44;4.18;;;1.48;;
47025;SDS011;32783;51.756;-2.556;2023-03-24T15:40:36;4.35;;;1.40;;
47025;SDS011;32783;51.756;-2.556;2023-03-24T15:43:04;2.92;;;1.98;;
47025;SDS011;32783;51.756;-2.556;2023-03-24T15:45:36;3.70;;;1.75;;
47025;SDS011;32783;51.756;-2.556;2023-03-24T15:48:08;3.80;;;3.50;;
47025;SDS011;32783;51.756;-2.556;2023-03-24T15:50:38;8.23;;;4.95;;
47025;SDS011;32783;51.756;-2.556;2023-03-24T15:55:42;4.28;;;2.45;;
47025;SDS011;32783;51.756;-2.556;2023-03-24T16:00:52;5.75;;;2.67;;
47025;SDS011;32783;51.756;-2.556;2023-03-24T16:03:20;3.45;;;2.42;;
47025;SDS011;32783;51.756;-2.556;2023-03-24T16:05:50;5.22;;;2.42;;
47025;SDS011;32783;51.756;-2.556;2023-03-24T16:10:58;5.22;;;2.50;;
47025;SDS011;32783;51.756;-2.556;2023-03-24T16:13:25;4.88;;;2.30;;
47025;SDS011;32783;51.756;-2.556;2023-03-24T16:18:51;4.13;;;2.55;;
47025;SDS011;32783;51.756;-2.556;2023-03-24T16:23:45;4.85;;;2.67;;
47025;SDS011;32783;51.756;-2.556;2023-03-24T16:26:12;4.28;;;2.67;;
47025;SDS011;32783;51.756;-2.556;2023-03-24T16:28:39;3.85;;;2.40;;
47025;SDS011;32783;51.756;-2.556;2023-03-24T16:31:05;4.95;;;2.55;;
47025;SDS011;32783;51.756;-2.556;2023-03-24T16:33:31;6.55;;;2.13;;
47025;SDS011;32783;51.756;-2.556;2023-03-24T16:35:57;4.43;;;2.10;;
47025;SDS011;32783;51.756;-2.556;2023-03-24T16:38:24;5.63;;;2.78;;
47025;SDS011;32783;51.756;-2.556;2023-03-24T16:40:51;4.07;;;1.98;;
47025;SDS011;32783;51.756;-2.556;2023-03-24T16:43:18;4.60;;;2.20;;
47025;SDS011;32783;51.756;-2.556;2023-03-24T16:45:47;3.63;;;2.10;;
47025;SDS011;32783;51.756;-2.556;2023-03-24T16:48:14;2.95;;;1.90;;
47025;SDS011;32783;51.756;-2.556;2023-03-24T16:50:41;4.28;;;2.15;;
47025;SDS011;32783;51.756;-2.556;2023-03-24T16:53:10;3.75;;;1.80;;
47025;SDS011;32783;51.756;-2.556;2023-03-24T16:55:37;3.92;;;2.13;;
47025;SDS011;32783;51.756;-2.556;2023-03-24T16:58:04;4.13;;;2.00;;
47025;SDS011;32783;51.756;-2.556;2023-03-24T17:00:30;2.83;;;1.73;;
47025;SDS011;32783;51.756;-2.556;2023-03-24T17:02:56;3.13;;;1.80;;
47025;SDS011;32783;51.756;-2.556;2023-03-24T17:05:38;3.17;;;1.88;;
47025;SDS011;32783;51.756;-2.556;2023-03-24T17:08:12;3.05;;;1.52;;
47025;SDS011;32783;51.756;-2.556;2023-03-24T17:10:39;3.47;;;1.55;;
47025;SDS011;32783;51.756;-2.556;2023-03-24T17:13:05;2.30;;;1.38;;
47025;SDS011;32783;51.756;-2.556;2023-03-24T17:15:30;3.78;;;1.98;;
47025;SDS011;32783;51.756;-2.556;2023-03-24T17:17:57;2.45;;;1.27;;
47025;SDS011;32783;51.756;-2.556;2023-03-24T17:20:24;3.13;;;1.63;;
47025;SDS011;32783;51.756;-2.556;2023-03-24T17:22:52;4.43;;;1.88;;
47025;SDS011;32783;51.756;-2.556;2023-03-24T17:25:19;3.35;;;1.50;;
47025;SDS011;32783;51.756;-2.556;2023-03-24T17:27:46;3.83;;;1.55;;
47025;SDS011;32783;51.756;-2.556;2023-03-24T17:30:18;5.80;;;1.63;;
47025;SDS011;32783;51.756;-2.556;2023-03-24T17:32:45;4.63;;;1.80;;
47025;SDS011;32783;51.756;-2.556;2023-03-24T17:35:12;3.00;;;1.67;;
47025;SDS011;32783;51.756;-2.556;2023-03-24T17:37:38;2.55;;;1.10;;
47025;SDS011;32783;51.756;-2.556;2023-03-24T17:40:04;2.17;;;1.45;;
47025;SDS011;32783;51.756;-2.556;2023-03-24T17:42:33;2.38;;;1.50;;
47025;SDS011;32783;51.756;-2.556;2023-03-24T17:44:59;3.30;;;1.13;;
47025;SDS011;32783;51.756;-2.556;2023-03-24T17:47:25;2.60;;;1.33;;
47025;SDS011;32783;51.756;-2.556;2023-03-24T17:49:50;2.33;;;1.15;;